Pagrindinis puslapis
METAR-TAF:

METAR-TAF

Oro uostai :

Nyala, Sudanas

platuma: 12-03-13N, ilguma: 024-57-22E, Aukštis: 642 m

Dabartinis oras

Ataskaita buvo paskelbta 7 valandos ir 6 minutes, ne 20:00 UTC
Vėjas 6 kt iš Šiaurės/Šiaurės Rytų
Temperatūra 21°C
Drėgmė 16%
Slėgis 1018 hPa
Matomumas 10 km arba daugiau
nėra debesų žemiau 1500 m ir nėra kamuolinių lietaus debesų

METAR: HSNN 202000Z 02006KT CAVOK 21/M06 Q1018

Laikas: 05:06 (03:06 UTC)


TAF: trūkstamas

Orai ataskaitas ir orų prognozės (METAR, TAF).

turimą stotys yra geltonos ir raudonos taškus žemėlapyje.

Perkelti pele per norėdami pamatyti stoties vardą.

Tada spustelėkite, norėdami matyti oro stebėjimo ir prognozės.

Norėdami pakeisti žemėlapį: spustelėkite ant žalios mygtukų su juodo kryžiaus žemyn,; žalią mygtuką su brūkšneliu, jei norite nutolinti; arba žalių rodyklių gretimoms žemėlapius.


METAR-TAF: